map of CNG home
CNG - Airport
Location
City:  Cognac, Poitou-Charentes, France
Name:Châteaubernard AB
Old (Alt.):Parvaud
ICAO:LFBG
IATA:CNG

Details
Type:Airport (Aerodrome, Airfield)
Use:Military
Latitude:45°39'30"N (45.658333)
Longitude:0°19'03"W (-0.317499)
Elevation:102 ft (31 m)
Variation:0.33°E (WMM2015v2 magnetic declination)
0.17° annual change
Runways:2
Longest:7949 × 148 ft (2423 × 45 m)

Time
Time Zone:UTC+1 (DST+2)
Local Time:

Weather
METAR:LFBG 041400Z AUTO 15008KT 9999 -RA ///CB 04/02 Q1026 BECMG 4000 -RA BKN030
TAF:LFBG 041400Z 0415/0515 16010KT 6000 RA NSC
BECMG 0417/0419 BKN014
BECMG 0421/0423 3000 BR BKN002
TEMPO 0513/0515 BKN005

Related Locations
Nearby:
Farthest:CHT: 12208 mi / 19647 km
Waitangi [Tuuta], CIT, NZ

Find:

   beyond  
but within

Other Information
Maps:
NOTAMs:
Links:
Sources:

  
  • flag of France
  • flag of Poitou-Charentes
  

Sectional Chart

Flight Planning
at skyvector.com

Satellite Image

Google Maps Satellite view

 

Copyright © 2004-2019 Karl L. Swartz. All rights reserved.
The Great Circle Mapper name and logo are trademarks of the Great Circle Mapper.
All other trademarks mentioned herein belong to their respective owners.
Please see credits for attibutions and further copyright information.

  Follow gcmap on Facebook Follow gcmap on Twitter GCmap on LinkedIn

hCard Microformat

Geo Microformat